Terminal Aerodrome Forecast
Issued by NWS Twin Cities, MN

Home | Current Version | Previous Version | Text Only | Print | Product List | Glossary On
Versions: 1 2 3 4 5 6 7 8 9 10 11 12 13 14 15 16 17 18 19 20 21 22 23 24 25
308
FTUS43 KMPX 052323
TAFMSP
TAF
KMSP 052323Z 0600/0706 23008KT P6SM SKC
     FM061800 23014G21KT P6SM FEW250
     FM070100 27007KT P6SM VCSH FEW120 SCT250 PROB30 0701/0705 -TSRA
      BKN070CB OVC200
     FM070500 34009KT P6SM BKN200=

USA.gov is the U.S. government's official web portal to all federal, state and local government web resources and services.